createdAt,value
2018-05-31T00:00:10.667Z,20.6
2018-05-31T00:05:15.142Z,20.6
2018-05-31T00:10:05.616Z,20.6
2018-05-31T00:15:03.275Z,20.6
2018-05-31T00:20:05.305Z,20.5
2018-05-31T00:25:05.828Z,20.5
2018-05-31T00:30:07.600Z,20.4
2018-05-31T00:35:10.539Z,20.4
2018-05-31T00:40:10.045Z,20.3
2018-05-31T00:45:08.169Z,20.4
2018-05-31T00:50:05.081Z,20.4
2018-05-31T00:55:03.227Z,20.3
2018-05-31T01:00:02.532Z,20.4
2018-05-31T01:05:02.999Z,20.3
2018-05-31T01:10:10.303Z,20.2
2018-05-31T01:15:08.238Z,20.2
2018-05-31T01:20:05.238Z,20.1
2018-05-31T01:25:03.145Z,20.1
2018-05-31T01:30:10.113Z,20
2018-05-31T01:35:08.084Z,19.9
2018-05-31T01:40:10.647Z,19.8
2018-05-31T01:45:10.283Z,19.8
2018-05-31T01:50:02.742Z,19.7
2018-05-31T01:55:13.287Z,19.7
2018-05-31T02:00:05.313Z,19.6
2018-05-31T02:05:05.692Z,19.6
2018-05-31T02:10:07.657Z,19.6
2018-05-31T02:15:03.064Z,19.6
2018-05-31T02:20:05.241Z,19.5
2018-05-31T02:25:05.584Z,19.4
2018-05-31T02:30:08.145Z,19.4
2018-05-31T02:35:02.551Z,19.4
2018-05-31T02:40:05.172Z,19.3
2018-05-31T02:45:02.947Z,19.3
2018-05-31T02:50:07.664Z,19.3
2018-05-31T02:55:08.083Z,19.2
2018-05-31T03:00:05.056Z,19.2
2018-05-31T03:05:07.997Z,19.1
2018-05-31T03:10:10.605Z,18.9
2018-05-31T03:15:02.427Z,19
2018-05-31T03:20:08.012Z,18.9
2018-05-31T03:25:02.667Z,18.9
2018-05-31T03:30:03.047Z,18.9
2018-05-31T03:35:07.544Z,18.9
2018-05-31T03:40:10.036Z,18.9
2018-05-31T03:45:02.935Z,18.9
2018-05-31T03:50:02.432Z,19
2018-05-31T03:55:05.434Z,19
2018-05-31T04:00:02.872Z,19
2018-05-31T04:05:05.850Z,19
2018-05-31T04:10:05.349Z,19.1
2018-05-31T04:15:09.952Z,19.1
2018-05-31T04:20:30.666Z,19.1
2018-05-31T04:25:05.595Z,19.2
2018-05-31T04:30:05.685Z,19.2
2018-05-31T04:35:05.035Z,19.3
2018-05-31T04:40:05.482Z,19.4
2018-05-31T04:45:02.404Z,19.4
2018-05-31T04:50:05.425Z,19.5
2018-05-31T04:55:20.999Z,19.6
2018-05-31T05:00:02.448Z,19.6
2018-05-31T05:05:07.934Z,19.7
2018-05-31T05:10:02.795Z,19.7
2018-05-31T05:15:08.401Z,19.9
2018-05-31T05:20:08.053Z,20
2018-05-31T05:25:04.976Z,20.1
2018-05-31T05:30:10.098Z,20.2
2018-05-31T05:35:02.882Z,20.2
2018-05-31T05:40:03.157Z,20.4
2018-05-31T05:45:03.318Z,20.4
2018-05-31T05:50:18.081Z,20.7
2018-05-31T05:55:05.865Z,20.8
2018-05-31T06:00:05.524Z,20.9
2018-05-31T06:05:10.413Z,21
2018-05-31T06:10:05.861Z,21.1
2018-05-31T06:15:08.056Z,21.3
2018-05-31T06:20:07.594Z,21.4
2018-05-31T06:25:33.381Z,21.5
2018-05-31T06:30:08.238Z,21.6
2018-05-31T06:35:02.924Z,21.7
2018-05-31T06:40:02.747Z,21.8
2018-05-31T06:45:05.775Z,22
2018-05-31T06:50:13.239Z,22.1
2018-05-31T06:55:05.145Z,22.3
2018-05-31T07:00:10.178Z,22.4
2018-05-31T07:05:03.004Z,22.4
2018-05-31T07:10:07.981Z,22.6
2018-05-31T07:15:05.872Z,22.8
2018-05-31T07:20:10.920Z,23
2018-05-31T07:25:05.314Z,23.1
2018-05-31T07:30:02.711Z,23.1
2018-05-31T07:35:03.107Z,23.2
2018-05-31T07:40:05.834Z,23.5
2018-05-31T07:45:05.334Z,23.7
2018-05-31T07:50:05.264Z,23.9
2018-05-31T07:55:05.643Z,24
2018-05-31T08:00:10.719Z,24.1
2018-05-31T08:05:05.116Z,24.3
2018-05-31T08:10:02.956Z,24.3
2018-05-31T08:15:07.658Z,24.6
2018-05-31T08:20:05.681Z,24.6
2018-05-31T08:25:05.102Z,24.8
2018-05-31T08:30:02.494Z,24.8
2018-05-31T08:35:02.997Z,25
2018-05-31T08:40:02.919Z,25.2
2018-05-31T08:45:07.432Z,25.5
2018-05-31T08:50:13.018Z,25.7
2018-05-31T08:55:08.374Z,25.8
2018-05-31T09:00:05.389Z,26
2018-05-31T09:05:03.231Z,25.9
2018-05-31T09:10:08.246Z,26.1
2018-05-31T09:15:02.696Z,26.1
2018-05-31T09:20:03.265Z,26.2
2018-05-31T09:25:05.366Z,26.4
2018-05-31T09:30:02.796Z,26.4
2018-05-31T09:35:03.322Z,26.5
2018-05-31T09:40:05.900Z,26.8
2018-05-31T09:45:02.868Z,26.8
2018-05-31T09:50:02.437Z,27
2018-05-31T09:55:08.002Z,27.2
2018-05-31T10:00:10.006Z,27.4
2018-05-31T10:05:03.015Z,27.4
2018-05-31T10:10:07.999Z,27.7
2018-05-31T10:15:20.081Z,27.7
2018-05-31T10:20:02.584Z,27.7
2018-05-31T10:25:08.117Z,28
2018-05-31T10:30:05.212Z,28.1
2018-05-31T10:35:03.185Z,28.1
2018-05-31T10:40:03.185Z,28.3
2018-05-31T10:45:02.711Z,28.4
2018-05-31T10:50:07.582Z,28.5
2018-05-31T10:55:05.534Z,28.5
2018-05-31T11:00:15.622Z,28.7
2018-05-31T11:05:07.521Z,28.8
2018-05-31T11:10:02.388Z,28.8
2018-05-31T11:15:03.030Z,29
2018-05-31T11:20:02.766Z,29.1
2018-05-31T11:25:03.276Z,29.2
2018-05-31T11:30:02.690Z,29.3
2018-05-31T11:35:03.197Z,29.4
2018-05-31T11:40:03.101Z,29.6
2018-05-31T11:45:10.180Z,29.8
2018-05-31T11:50:17.832Z,29.8
2018-05-31T11:55:03.191Z,29.8
2018-05-31T12:00:05.347Z,30.3
2018-05-31T12:05:05.856Z,30.5
2018-05-31T12:10:03.046Z,30.5
2018-05-31T12:15:02.636Z,30.6
2018-05-31T12:20:05.851Z,31.1
2018-05-31T12:25:02.726Z,31.1
2018-05-31T12:30:05.744Z,31.2
2018-05-31T12:35:02.786Z,31.2
2018-05-31T12:40:15.491Z,31.2
2018-05-31T12:45:03.299Z,31.2
2018-05-31T12:50:02.731Z,31.5
2018-05-31T12:55:03.243Z,31.7
2018-05-31T13:00:02.704Z,32
2018-05-31T13:05:03.235Z,32.1
2018-05-31T13:10:05.691Z,32.4
2018-05-31T13:15:12.894Z,32.2
2018-05-31T13:20:05.332Z,32.5
2018-05-31T13:25:03.238Z,32.4
2018-05-31T13:30:02.747Z,32
2018-05-31T13:35:25.209Z,31.3
2018-05-31T13:40:10.671Z,31.7
2018-05-31T13:45:15.232Z,32.4
2018-05-31T13:50:05.254Z,32.8
2018-05-31T13:55:05.784Z,33.2
2018-05-31T14:00:05.794Z,33.6
2018-05-31T14:05:05.440Z,33
2018-05-31T14:10:02.449Z,33
2018-05-31T14:15:08.014Z,33.4
2018-05-31T14:20:07.644Z,34.8
2018-05-31T14:25:05.649Z,35.2
2018-05-31T14:30:10.742Z,35.7
2018-05-31T14:35:02.738Z,35.6
2018-05-31T14:40:05.305Z,35.9
2018-05-31T14:45:10.008Z,35
2018-05-31T14:50:05.162Z,34.7
2018-05-31T14:55:03.024Z,34.7
2018-05-31T15:00:05.051Z,35.5
2018-05-31T15:05:05.696Z,34.7
2018-05-31T15:10:02.626Z,34.7
2018-05-31T15:15:03.254Z,33.9
2018-05-31T15:20:05.371Z,32.3
2018-05-31T15:25:17.594Z,6
2018-05-31T15:30:08.120Z,31.4
2018-05-31T15:35:02.617Z,31.4
2018-05-31T15:40:07.610Z,31.2
2018-05-31T15:45:03.107Z,31.2
2018-05-31T15:50:15.265Z,31.1
2018-05-31T15:55:08.127Z,31.1
2018-05-31T16:00:05.135Z,31
2018-05-31T16:05:05.753Z,30.8
2018-05-31T16:10:02.729Z,30.8
2018-05-31T16:15:05.803Z,30.3
2018-05-31T16:20:04.934Z,30.2
2018-05-31T16:25:02.868Z,30.2
2018-05-31T16:30:05.866Z,30.2
2018-05-31T16:35:02.909Z,30.1
2018-05-31T16:40:02.898Z,30
2018-05-31T16:45:09.997Z,29.9
2018-05-31T16:50:02.452Z,29.9
2018-05-31T16:55:03.017Z,30
2018-05-31T17:00:07.535Z,29.8
2018-05-31T17:05:02.954Z,29.8
2018-05-31T17:10:02.883Z,29.8
2018-05-31T17:15:03.347Z,29.7
2018-05-31T17:20:08.040Z,29.7
2018-05-31T17:25:07.495Z,29.8
2018-05-31T17:30:05.467Z,29.8
2018-05-31T17:35:15.088Z,29.7
2018-05-31T17:40:05.589Z,29.8
2018-05-31T17:45:30.380Z,29.8
2018-05-31T17:50:05.307Z,29.9
2018-05-31T17:55:03.290Z,29.9
2018-05-31T18:00:10.389Z,29.8
2018-05-31T18:05:09.971Z,29.7
2018-05-31T18:10:05.406Z,29.7
2018-05-31T18:15:10.100Z,29.7
2018-05-31T18:20:07.693Z,29.5
2018-05-31T18:25:03.143Z,29.4
2018-05-31T18:30:02.668Z,29.3
2018-05-31T18:35:05.738Z,29
2018-05-31T18:40:05.216Z,28.9
2018-05-31T18:45:20.922Z,28.7
2018-05-31T18:50:08.356Z,28.5
2018-05-31T18:55:10.366Z,28.5
2018-05-31T19:00:15.510Z,28.4
2018-05-31T19:05:03.239Z,28.5
2018-05-31T19:10:08.240Z,28.2
2018-05-31T19:15:05.203Z,28.1
2018-05-31T19:20:07.807Z,27.9
2018-05-31T19:25:03.254Z,28
2018-05-31T19:30:05.193Z,27.7
2018-05-31T19:35:05.049Z,27.5
2018-05-31T19:40:02.961Z,27.5
2018-05-31T19:45:05.058Z,27.3
2018-05-31T19:50:02.483Z,27.2
2018-05-31T19:55:02.992Z,27.1
2018-05-31T20:00:02.378Z,27.1
2018-05-31T20:05:05.439Z,26.8
2018-05-31T20:10:08.425Z,26.6
2018-05-31T20:15:02.817Z,26.7
2018-05-31T20:20:08.466Z,26.4
2018-05-31T20:25:05.302Z,26.4
2018-05-31T20:30:05.298Z,26.3
2018-05-31T20:35:03.169Z,26.3
2018-05-31T20:40:13.290Z,26.1
2018-05-31T20:45:15.266Z,26
2018-05-31T20:50:02.728Z,26
2018-05-31T20:55:08.250Z,25.8
2018-05-31T21:00:05.228Z,25.7
2018-05-31T21:05:03.299Z,25.7
2018-05-31T21:10:03.242Z,25.6
2018-05-31T21:15:02.615Z,25.4
2018-05-31T21:20:08.205Z,25.2
2018-05-31T21:25:05.402Z,25.1
2018-05-31T21:30:02.818Z,25.1
2018-05-31T21:35:03.311Z,25
2018-05-31T21:40:02.400Z,24.1
2018-05-31T21:45:30.720Z,24.7
2018-05-31T21:50:03.172Z,24.7
2018-05-31T21:55:02.617Z,24.6
2018-05-31T22:00:04.947Z,24.4
2018-05-31T22:05:02.864Z,24.4
2018-05-31T22:10:02.799Z,24.3
2018-05-31T22:15:15.928Z,24
2018-05-31T22:20:07.506Z,24
2018-05-31T22:25:10.445Z,23.9
2018-05-31T22:30:07.927Z,23.9
2018-05-31T22:35:03.318Z,23.9
2018-05-31T22:40:10.872Z,23.7
2018-05-31T22:45:10.249Z,23.6
2018-05-31T22:50:10.207Z,23.5
2018-05-31T22:55:03.036Z,23.5
2018-05-31T23:00:12.753Z,23.4
2018-05-31T23:05:02.945Z,23.4
2018-05-31T23:10:12.938Z,23.2
2018-05-31T23:15:13.352Z,23.1
2018-05-31T23:20:05.392Z,23.1
2018-05-31T23:25:15.084Z,23
2018-05-31T23:30:07.531Z,22.9
2018-05-31T23:35:05.516Z,22.8
2018-05-31T23:40:05.892Z,22.8
2018-05-31T23:45:02.806Z,22.7
2018-05-31T23:50:03.176Z,22.7
2018-05-31T23:55:07.692Z,22.6
